« 地元鉄の旅その4 北陸鉄道 2022/3/5 sat | トップページ | 定点 富山空港 2022/3/11 fri »

2022/03/10

定点 富山空港他 2022/3/10 thu

押入による侵略が続いています。経済制裁でウラジオストックと交易のある富山県も影響を免れません。ちょっと港を覗いてみた。

RJNT 100000Z 17004KT 120V210 CAVOK 07/M01 Q1023

20220310_0toyama_00a

富山港には、ロシア船籍のバルク船が停泊していた。 АЗИЯ アジア号らしい。

手前の中古車の留置は半分くらい。

20220310_1fushiki_01o

もう一つの輸出港は、伏木港の万葉埠頭。相変わらず中古車が一杯です。

20220310_1fushiki_02o

奥にバルク船が停泊していましたが、これは中古車とは関係なさそう。決済ができないので、荷動きが止まりそう。

20220310_1fushiki_03miyamaru1

第一宮丸 油は降ろしたようだ。

20220310_1fushiki_04pl04

20220310_1fushiki_05pl04

PL04「やひこ」

20220310_1fushiki_06pl04

この前で、射水市消防本部が潜水訓練の準備をしていた。

20220310_1fushiki_07ps203

20220310_1fushiki_08ps203

PS203「のりくら」 停泊していると、一安心。

20220310_1fushiki_09cl68

国分に行ってみるとCL68「たちかぜ」 消防艇やまとは、ドックかな

20220310_1fushiki_10ps203

「たちかぜ」では、のりくら搭載艇の操縦訓練をしてたみたい。

RJNT 100100Z VRB01KT CAVOK 09/M02 Q1023

20220310_1fushiki_11kokubu

今日ものんびり氷見線

RJNT 100200Z VRB01KT 9999 FEW030 OVC/// 10/02 Q1023

20220310_2rjnt_12ja86an

ようやく河原に

20220310_2rjnt_13ja86an

ANA315 RJTT-RJNT JA86AN B737-881

20220310_2rjnt_14ja86an

晴れているのに、黄砂来襲で、もやっとよどんでいる。

20220310_2rjnt_15ja6502

JA6502↓ AS350B3 AKF

20220310_2rjnt_16ja139t

JA139T↓ AW139 富山県警察

20220310_2rjnt_17ja139t

20220310_2rjnt_18ja6502

JA6502↑ 朝日さんは、電力関係で忙しい。

20220310_2rjnt_19ja86an

20220310_2rjnt_20ja86an

20220310_2rjnt_21ja86an

ANA316 RJNT-RJTT JA86AN B737-881

20220310_2rjnt_22ja86an

RJNT 100400Z VRB02KT 9999 FEW030 SCT/// 12/00 Q1022

20220310_2rjnt_23ja6512

JA6512↓ AS350B3 AKF

20220310_2rjnt_24ja119w

JA119W AW139 富山県消防防災 黒部方面で訓練

20220310_2rjnt_25hl7269

KAL551 RKSI-RJAA HL7629 B747-8B5F

20220310_2rjnt_26tsurugi

霞んでいますが、山は綺麗です。

20220310_2rjnt_27tateyama

20220310_2rjnt_28alpus

すっかり春の陽気になってきてます。

まもなく燕さんがやってくるかな。

 

|

« 地元鉄の旅その4 北陸鉄道 2022/3/5 sat | トップページ | 定点 富山空港 2022/3/11 fri »

てつ」カテゴリの記事

lighthouse」カテゴリの記事

富山空港」カテゴリの記事

海上保安庁」カテゴリの記事

コメント

コメントを書く



(ウェブ上には掲載しません)


コメントは記事投稿者が公開するまで表示されません。



« 地元鉄の旅その4 北陸鉄道 2022/3/5 sat | トップページ | 定点 富山空港 2022/3/11 fri »